Flight Track Log - Related Links

Times and Time Zones

All times are in EDT time to prevent confusion due to time zone crossing. See the ECJ21 flight status page for this flight to view local times or setup timezone preferences in your user account.

Time Position Orientation Groundspeed Altitude Reporting Facility
EDT Latitude Longitude Course Direction KTS MPH feet Rate Location/Type
Tue 09:26:07 AM 41.0833 -73.7333 255° West 186 214 2,000  Level New York TRACON
Tue 09:27:07 AM 41.0667 -73.8167 255° West 234 269 4,200 2,100 Climbing New York TRACON
Tue 09:28:07 AM 41.0167 -73.8500 207° Southwest 271 312 6,200 1,776 Climbing New York TRACON
Tue 09:29:12 AM 40.9333 -73.8500 180° South 307 353 7,900 912 Climbing New York TRACON
Tue 09:30:12 AM 40.8333 -73.8000 159° South 326 375 8,100 886 Climbing New York TRACON
Tue 09:32:08 AM 40.7050 -73.6864 146° Southeast 336 387 10,500 1,759 Climbing New York Center
Tue 09:33:06 AM 40.6300 -73.5903 136° Southeast 347 399 13,200 2,492 Climbing New York Center
Tue 09:34:06 AM 40.5631 -73.5167 140° Southeast 353 406 15,400 1,426 Climbing New York Center
Tue 09:35:08 AM 40.4839 -73.4233 138° Southeast 367 422 16,100 1,311 Climbing New York Center
Tue 09:36:05 AM 40.3925 -73.3189 139° Southeast 393 452 18,000 1,916 Climbing New York Center
Tue 09:37:07 AM 40.3133 -73.2236 137° Southeast 398 458 19,900 2,016 Climbing New York Center
Tue 09:38:07 AM 40.2508 -73.1153 127° Southeast 390 449 22,100 1,537 Climbing New York Center
Tue 09:39:08 AM 40.1844 -73.0042 128° Southeast 383 441 23,000 443 Climbing New York Center
Tue 09:40:09 AM 40.1178 -72.8908 128° Southeast 404 465 23,000 458 Level New York Center
Tue 09:41:06 AM 40.0408 -72.7664 129° Southeast 429 494 23,900 1,261 Climbing New York Center
Tue 09:42:08 AM 39.9697 -72.6425 127° Southeast 434 499 25,500 1,574 Climbing New York Center
Tue 09:43:08 AM 39.8989 -72.5242 128° Southeast 423 487 27,100 1,525 Climbing New York Center
Tue 09:44:06 AM 39.8297 -72.4064 127° Southeast 423 487 28,500 958 Climbing New York Center
Tue 09:45:07 AM 39.7603 -72.2886 127° Southeast 423 487 29,000 246 Climbing New York Center
Tue 09:46:08 AM 39.6828 -72.1656 129° Southeast 430 495 29,000  Level New York Center
Tue 09:47:06 AM 39.5817 -72.0664 143° Southeast 441 507 29,000  Level New York Center
Tue 09:48:07 AM 39.4786 -71.9731 145° Southeast 453 521 29,000  Level New York Center
Tue 09:49:06 AM 39.3775 -71.8744 143° Southeast 458 527 29,000  Level New York Center
Tue 09:50:05 AM 39.2742 -71.7736 143° Southeast 463 533 29,000  Level New York Center
Tue 09:51:06 AM 39.1728 -71.6783 144° Southeast 463 533 29,000  Level New York Center
Tue 09:52:06 AM 39.0714 -71.5861 145° Southeast 463 533 29,000 50 Level New York Center
Tue 09:53:07 AM 38.9697 -71.4836 142° Southeast 463 533 29,100 397 Climbing New York Center
Tue 09:54:07 AM 38.8661 -71.3864 144° Southeast 463 533 29,800 700 Climbing New York Center
Tue 09:55:07 AM 38.7667 -71.2869 142° Southeast 458 527 30,500 595 Climbing New York Center
Tue 09:56:08 AM 38.6647 -71.1958 145° Southeast 453 521 31,000 248 Climbing New York Center
Tue 09:57:08 AM 38.5589 -71.1047 146° Southeast 458 527 31,000  Level New York Center
Tue 09:58:06 AM 38.4569 -71.0061 143° Southeast 458 527 31,000  Level New York Center
Tue 09:59:06 AM 38.3569 -70.9025 141° Southeast 463 533 31,000  Level New York Center
Tue 10:00:06 AM 38.2381 -70.8097 148° Southeast 463 533 31,000  Level New York Center
Tue 10:01:07 AM 38.1339 -70.7169 145° Southeast 463 533 31,000  Level New York Center
Tue 10:02:08 AM 38.0297 -70.6247 145° Southeast 463 533 31,000  Level New York Center
Tue 10:04:00 AM 37.8569 -70.4894 154° Southeast  Level FlightAware Approximate
Tue 10:11:00 AM 37.1768 -70.0599 154° Southeast  Level FlightAware Approximate
Tue 10:12:00 AM 37.0779 -70.0004 154° Southeast  Level FlightAware Approximate
Tue 10:13:00 AM 36.9790 -69.9410 154° Southeast  Level FlightAware Approximate
Tue 10:14:00 AM 36.8800 -69.8818 154° Southeast  Level FlightAware Approximate
Tue 10:15:00 AM 36.7811 -69.8227 154° Southeast  Level FlightAware Approximate
Tue 10:16:00 AM 36.6820 -69.7637 154° Southeast  Level FlightAware Approximate
Tue 10:17:00 AM 36.5830 -69.7050 155° Southeast  Level FlightAware Approximate
Tue 10:18:00 AM 36.4839 -69.6463 155° Southeast  Level FlightAware Approximate
Tue 10:19:00 AM 36.3848 -69.5879 155° Southeast  Level FlightAware Approximate
Tue 10:20:00 AM 36.2856 -69.5295 155° Southeast  Level FlightAware Approximate
Tue 10:20:32 AM 36.1667 -69.4500 143° Southeast 456 525 31,000  Level New York Oceanic (ODAPS)
Tue 10:21:00 AM 36.1865 -69.4714 155° Southeast  Level FlightAware Approximate
Tue 10:22:00 AM 36.0951 -69.3975 142° Southeast  Level FlightAware Approximate
Tue 10:23:00 AM 36.0082 -69.3147 142° Southeast  Level FlightAware Approximate
Tue 10:24:00 AM 35.9212 -69.2321 142° Southeast  Level FlightAware Approximate
Tue 10:25:00 AM 35.8342 -69.1497 142° Southeast  Level FlightAware Approximate
Tue 10:26:00 AM 35.4583 -68.7860 143° Southeast 456 525 31,000  Level FlightAware Transoceanic
Tue 10:27:00 AM 35.3568 -68.6921 143° Southeast 456 525 31,000  Level FlightAware Transoceanic
Tue 10:28:00 AM 35.2552 -68.5984 143° Southeast 456 525 31,000  Level FlightAware Transoceanic
Tue 10:29:00 AM 35.1536 -68.5050 143° Southeast 456 525 31,000  Level FlightAware Transoceanic
Tue 10:30:00 AM 35.0519 -68.4118 143° Southeast 456 525 31,000  Level FlightAware Transoceanic
Tue 10:31:00 AM 34.9501 -68.3188 143° Southeast 456 525 31,000  Level FlightAware Transoceanic
Tue 10:32:00 AM 34.8482 -68.2261 143° Southeast 456 525 31,000  Level FlightAware Transoceanic
Tue 10:33:00 AM 34.7463 -68.1336 143° Southeast 456 525 31,000  Level FlightAware Transoceanic
Tue 10:34:00 AM 34.6443 -68.0413 143° Southeast 456 525 31,000  Level FlightAware Transoceanic
Tue 10:35:00 AM 34.5423 -67.9493 143° Southeast 456 525 31,000  Level FlightAware Transoceanic
Tue 10:36:00 AM 34.4401 -67.8575 143° Southeast 456 525 31,000  Level FlightAware Transoceanic
Tue 10:37:00 AM 34.3379 -67.7659 144° Southeast 456 525 31,000  Level FlightAware Transoceanic
Tue 10:38:00 AM 34.2357 -67.6745 144° Southeast 456 525 31,000  Level FlightAware Transoceanic
Tue 10:39:00 AM 34.1333 -67.5833 125° Southeast 456 525 31,000  Level FlightAware Transoceanic
Tue 10:39:50 AM 34.1333 -67.5833 125° Southeast 449 517 31,000  Level New York Oceanic (ODAPS)
Tue 10:40:00 AM 34.0611 -67.4601 125° Southeast 456 525 31,000  Level FlightAware Transoceanic
Tue 10:41:00 AM 33.9887 -67.3371 125° Southeast 456 525 31,000  Level FlightAware Transoceanic
Tue 10:42:00 AM 33.9162 -67.2144 125° Southeast 456 525 31,000  Level FlightAware Transoceanic
Tue 10:43:00 AM 33.8436 -67.0918 126° Southeast 456 525 31,000  Level FlightAware Transoceanic
Tue 10:44:00 AM 33.7709 -66.9694 126° Southeast 456 525 31,000  Level FlightAware Transoceanic
Tue 10:45:00 AM 33.6980 -66.8473 126° Southeast 456 525 31,000  Level FlightAware Transoceanic
Tue 10:46:00 AM 33.6251 -66.7253 126° Southeast 449 517 31,000  Level FlightAware Transoceanic
Tue 10:47:00 AM 33.5520 -66.6036 126° Southeast 449 517 31,000  Level FlightAware Transoceanic
Tue 10:48:00 AM 33.4788 -66.4820 126° Southeast 449 517 31,000  Level FlightAware Transoceanic
Tue 10:49:00 AM 33.4054 -66.3607 126° Southeast 449 517 31,000  Level FlightAware Transoceanic
Tue 10:50:00 AM 33.3320 -66.2396 126° Southeast 449 517 31,000  Level FlightAware Transoceanic
Tue 10:51:00 AM 33.2584 -66.1187 126° Southeast 449 517 31,000 -3,158 Level FlightAware Transoceanic
Tue 10:51:16 AM 34.1333 -67.5833 125° Southeast 451 519 27,000  Descending New York Oceanic (ODAPS)
Tue 10:52:00 AM 33.1847 -65.9980 126° Southeast 449 517 31,000 2,308 Climbing FlightAware Transoceanic
Tue 10:53:00 AM 33.1109 -65.8774 126° Southeast 449 517 31,000  Level FlightAware Transoceanic
Tue 10:54:00 AM 33.0197 -65.7287 126° Southeast 451 519 31,000  Level FlightAware Transoceanic
Tue 10:55:00 AM 32.9445 -65.6067 126° Southeast 451 519 31,000 -7,253 Level FlightAware Transoceanic
Tue 10:55:31 AM 34.1333 -67.5833 125° Southeast 451 519 20,000 -16,364 Descending New York Oceanic (ODAPS)
Tue 10:55:44 AM 34.1333 -67.5833 125° Southeast 451 519 19,000 22,759 Descending New York Oceanic (ODAPS)
Tue 10:56:00 AM 32.8692 -65.4849 126° Southeast 451 519 31,000 6,316 Climbing FlightAware Transoceanic
Tue 10:57:00 AM 32.7937 -65.3634 126° Southeast 451 519 27,000 -2,000 Descending FlightAware Transoceanic
Tue 10:58:00 AM 32.7182 -65.2421 127° Southeast 451 519 27,000 -9,176 Level FlightAware Transoceanic
Tue 10:58:25 AM 34.1333 -67.5833 125° Southeast 451 519 14,000  Descending New York Oceanic (ODAPS)
Tue 10:59:00 AM 32.6425 -65.1209 127° Southeast 451 519 27,000 8,211 Climbing FlightAware Transoceanic
Tue 11:00:00 AM 32.5667 -65.0000 106° East 451 519 27,000 -12,439 Level FlightAware Transoceanic
Tue 11:00:22 AM 34.1333 -67.5833 125° Southeast 451 519 10,000  Descending New York Oceanic (ODAPS)
Tue 11:01:00 AM 32.5336 -64.8624 106° East 451 519 27,000 5,510 Climbing FlightAware Transoceanic
Tue 11:02:00 AM 32.5136 -64.7798 106° East 451 519 19,000 -4,000 Descending FlightAware Transoceanic
Tue 11:03:00 AM 32.4869 -64.6698 106° East 451 519 19,000 -2,500 Level FlightAware Transoceanic
Tue 11:04:00 AM 32.4780 -64.6331 106° East 451 519 14,000 -12,329 Descending FlightAware Transoceanic
Tue 11:04:13 AM 34.1333 -67.5833 125° Southeast 451 519 4,000  Descending New York Oceanic (ODAPS)
Tue 11:05:00 AM 32.4557 -64.5415 106° East 451 519 14,000 -1,216 Climbing FlightAware Transoceanic
Tue 11:05:27 AM 34.1333 -67.5833 125° Southeast 451 519 2,500 -6,050 Descending New York Oceanic (ODAPS)
Tue 11:06:00 AM 33.7858 -66.9643 127° Southeast  Level FlightAware Approximate
Tue 11:06:59 AM 34.1333 -67.5833 125° Southeast 451 519 2,000  Level New York Oceanic (ODAPS)
Tue 11:07:00 AM 33.7191 -66.8581 127° Southeast  Level FlightAware Approximate
Tue 11:08:00 AM 33.6522 -66.7521 127° Southeast  Level FlightAware Approximate
Tue 11:09:00 AM 33.5852 -66.6462 127° Southeast  Level FlightAware Approximate
Tue 11:10:00 AM 33.7758 -66.9484 127° Southeast  Level FlightAware Approximate
Tue 11:11:00 AM 33.7914 -66.9732 127° Southeast  Level FlightAware Approximate
Tue 11:12:00 AM 33.7246 -66.8670 127° Southeast  Level FlightAware Approximate
Tue 11:13:00 AM 33.7602 -66.9236 127° Southeast  Level FlightAware Approximate
Tue 11:14:00 AM 33.6934 -66.8175 127° Southeast  Level FlightAware Approximate

Login

Don't have an account? Register now (free) for customized features, flight alerts, and more!